sensor_id;sensor_type;location;lat;lon;timestamp;pressure;altitude;pressure_sealevel;temperature;humidity
35443;BME280;21561;55.654;37.592;2023-04-28T00:01:15;98780.13;;;12.90;61.02
35443;BME280;21561;55.654;37.592;2023-04-28T00:03:42;98773.25;;;12.89;60.59
35443;BME280;21561;55.654;37.592;2023-04-28T00:06:09;98776.72;;;12.88;60.35
35443;BME280;21561;55.654;37.592;2023-04-28T00:08:36;98771.59;;;12.85;60.25
35443;BME280;21561;55.654;37.592;2023-04-28T00:11:03;98778.72;;;12.79;60.62
35443;BME280;21561;55.654;37.592;2023-04-28T00:13:34;98774.50;;;12.75;61.72
35443;BME280;21561;55.654;37.592;2023-04-28T00:16:01;98788.53;;;12.70;65.96
35443;BME280;21561;55.654;37.592;2023-04-28T00:18:27;98772.16;;;12.66;62.36
35443;BME280;21561;55.654;37.592;2023-04-28T00:20:54;98777.66;;;12.57;61.97
35443;BME280;21561;55.654;37.592;2023-04-28T00:23:21;98771.00;;;12.47;62.59
35443;BME280;21561;55.654;37.592;2023-04-28T00:25:51;98765.06;;;12.41;62.04
35443;BME280;21561;55.654;37.592;2023-04-28T00:28:18;98764.38;;;12.36;62.88
35443;BME280;21561;55.654;37.592;2023-04-28T00:30:59;98764.44;;;12.33;62.24
35443;BME280;21561;55.654;37.592;2023-04-28T00:33:26;98758.53;;;12.28;62.58
35443;BME280;21561;55.654;37.592;2023-04-28T00:35:59;98760.34;;;12.25;63.00
35443;BME280;21561;55.654;37.592;2023-04-28T00:38:26;98756.91;;;12.24;64.28
35443;BME280;21561;55.654;37.592;2023-04-28T00:40:53;98752.63;;;12.21;62.75
35443;BME280;21561;55.654;37.592;2023-04-28T00:43:20;98760.56;;;12.17;63.48
35443;BME280;21561;55.654;37.592;2023-04-28T00:45:49;98749.44;;;12.12;62.94
35443;BME280;21561;55.654;37.592;2023-04-28T00:48:17;98749.53;;;12.09;63.03
35443;BME280;21561;55.654;37.592;2023-04-28T00:50:45;98752.19;;;12.06;65.41
35443;BME280;21561;55.654;37.592;2023-04-28T00:53:12;98753.19;;;12.01;63.64
35443;BME280;21561;55.654;37.592;2023-04-28T00:55:39;98756.91;;;11.91;63.82
35443;BME280;21561;55.654;37.592;2023-04-28T00:58:06;98764.97;;;11.80;64.88
35443;BME280;21561;55.654;37.592;2023-04-28T01:00:33;98757.38;;;11.73;65.44
35443;BME280;21561;55.654;37.592;2023-04-28T01:03:00;98761.03;;;11.65;66.32
35443;BME280;21561;55.654;37.592;2023-04-28T01:05:27;98763.63;;;11.65;65.16
35443;BME280;21561;55.654;37.592;2023-04-28T01:07:54;98762.75;;;11.67;64.71
35443;BME280;21561;55.654;37.592;2023-04-28T01:10:21;98757.56;;;11.67;64.06
35443;BME280;21561;55.654;37.592;2023-04-28T01:12:48;98759.09;;;11.74;64.90
35443;BME280;21561;55.654;37.592;2023-04-28T01:15:15;98758.88;;;11.81;64.33
35443;BME280;21561;55.654;37.592;2023-04-28T01:17:42;98758.72;;;11.88;64.25
35443;BME280;21561;55.654;37.592;2023-04-28T01:20:09;98759.41;;;11.96;65.69
35443;BME280;21561;55.654;37.592;2023-04-28T01:22:36;98748.94;;;11.99;64.90
35443;BME280;21561;55.654;37.592;2023-04-28T01:25:03;98766.06;;;12.06;65.33
35443;BME280;21561;55.654;37.592;2023-04-28T01:27:29;98770.38;;;12.07;65.84
35443;BME280;21561;55.654;37.592;2023-04-28T01:29:56;98773.81;;;12.08;66.94
35443;BME280;21561;55.654;37.592;2023-04-28T01:32:23;98773.00;;;12.06;66.92
35443;BME280;21561;55.654;37.592;2023-04-28T01:34:50;98773.91;;;12.05;66.74
35443;BME280;21561;55.654;37.592;2023-04-28T01:37:17;98766.09;;;12.05;70.42
35443;BME280;21561;55.654;37.592;2023-04-28T01:39:43;98770.41;;;12.06;67.62
35443;BME280;21561;55.654;37.592;2023-04-28T01:42:10;98767.69;;;12.10;67.37
35443;BME280;21561;55.654;37.592;2023-04-28T01:44:37;98766.72;;;12.13;67.57
35443;BME280;21561;55.654;37.592;2023-04-28T01:47:03;98761.53;;;12.13;67.53
35443;BME280;21561;55.654;37.592;2023-04-28T01:49:30;98761.56;;;12.11;67.95
35443;BME280;21561;55.654;37.592;2023-04-28T01:51:57;98769.38;;;12.11;68.58
35443;BME280;21561;55.654;37.592;2023-04-28T01:54:24;98765.13;;;12.09;69.45
35443;BME280;21561;55.654;37.592;2023-04-28T01:56:51;98766.91;;;12.07;69.42
35443;BME280;21561;55.654;37.592;2023-04-28T01:59:18;98756.59;;;12.03;69.32
35443;BME280;21561;55.654;37.592;2023-04-28T02:01:45;98749.69;;;12.02;69.05
35443;BME280;21561;55.654;37.592;2023-04-28T02:04:12;98746.25;;;12.00;70.89
35443;BME280;21561;55.654;37.592;2023-04-28T02:06:39;98753.19;;;12.01;71.42
35443;BME280;21561;55.654;37.592;2023-04-28T02:09:05;98754.00;;;12.03;69.47
35443;BME280;21561;55.654;37.592;2023-04-28T02:11:32;98755.66;;;12.06;70.08
35443;BME280;21561;55.654;37.592;2023-04-28T02:13:59;98752.16;;;12.07;68.65
35443;BME280;21561;55.654;37.592;2023-04-28T02:16:45;98764.34;;;12.05;68.87
35443;BME280;21561;55.654;37.592;2023-04-28T02:19:12;98752.19;;;12.06;70.21
35443;BME280;21561;55.654;37.592;2023-04-28T02:21:39;98742.72;;;12.05;71.00
35443;BME280;21561;55.654;37.592;2023-04-28T02:24:06;98748.78;;;12.03;69.53
35443;BME280;21561;55.654;37.592;2023-04-28T02:26:34;98750.47;;;12.06;69.28
35443;BME280;21561;55.654;37.592;2023-04-28T02:29:00;98757.34;;;12.07;72.99
35443;BME280;21561;55.654;37.592;2023-04-28T02:31:29;98760.88;;;12.06;70.45
35443;BME280;21561;55.654;37.592;2023-04-28T02:33:56;98769.56;;;12.05;75.00
35443;BME280;21561;55.654;37.592;2023-04-28T02:36:23;98772.25;;;12.00;75.47
35443;BME280;21561;55.654;37.592;2023-04-28T02:38:50;98778.38;;;11.99;72.91
35443;BME280;21561;55.654;37.592;2023-04-28T02:41:17;98774.03;;;12.00;72.40
35443;BME280;21561;55.654;37.592;2023-04-28T02:43:43;98768.78;;;12.01;71.25
35443;BME280;21561;55.654;37.592;2023-04-28T02:46:10;98768.00;;;11.98;74.48
35443;BME280;21561;55.654;37.592;2023-04-28T02:48:37;98782.66;;;12.00;72.79
35443;BME280;21561;55.654;37.592;2023-04-28T02:51:03;98785.16;;;12.05;72.00
35443;BME280;21561;55.654;37.592;2023-04-28T02:53:30;98782.59;;;12.03;71.78
35443;BME280;21561;55.654;37.592;2023-04-28T02:55:57;98782.59;;;12.03;72.31
35443;BME280;21561;55.654;37.592;2023-04-28T02:58:24;98774.06;;;11.98;78.89
35443;BME280;21561;55.654;37.592;2023-04-28T03:00:52;98772.38;;;11.97;76.46
35443;BME280;21561;55.654;37.592;2023-04-28T03:03:18;98770.56;;;11.99;75.21
35443;BME280;21561;55.654;37.592;2023-04-28T03:05:45;98767.00;;;12.03;72.37
35443;BME280;21561;55.654;37.592;2023-04-28T03:08:12;98764.34;;;12.05;72.10
35443;BME280;21561;55.654;37.592;2023-04-28T03:10:38;98781.69;;;12.06;76.21
35443;BME280;21561;55.654;37.592;2023-04-28T03:13:05;98769.56;;;12.05;76.36
35443;BME280;21561;55.654;37.592;2023-04-28T03:15:32;98787.88;;;12.00;80.80
35443;BME280;21561;55.654;37.592;2023-04-28T03:17:59;98786.13;;;12.01;78.12
35443;BME280;21561;55.654;37.592;2023-04-28T03:20:26;98782.66;;;12.00;75.32
35443;BME280;21561;55.654;37.592;2023-04-28T03:22:53;98786.25;;;11.96;79.91
35443;BME280;21561;55.654;37.592;2023-04-28T03:25:19;98787.88;;;12.00;75.59
35443;BME280;21561;55.654;37.592;2023-04-28T03:27:46;98785.38;;;11.97;74.94
35443;BME280;21561;55.654;37.592;2023-04-28T03:30:12;98801.84;;;11.96;75.04
35443;BME280;21561;55.654;37.592;2023-04-28T03:32:39;98796.72;;;11.93;76.78
35443;BME280;21561;55.654;37.592;2023-04-28T03:35:06;98789.88;;;11.89;78.00
35443;BME280;21561;55.654;37.592;2023-04-28T03:37:32;98797.66;;;11.91;75.41
35443;BME280;21561;55.654;37.592;2023-04-28T03:39:59;98803.72;;;11.91;80.18
35443;BME280;21561;55.654;37.592;2023-04-28T03:42:26;98800.22;;;11.92;77.02
35443;BME280;21561;55.654;37.592;2023-04-28T03:44:52;98801.91;;;11.93;76.24
35443;BME280;21561;55.654;37.592;2023-04-28T03:47:19;98801.84;;;11.96;75.42
35443;BME280;21561;55.654;37.592;2023-04-28T03:49:45;98816.56;;;11.97;76.07
35443;BME280;21561;55.654;37.592;2023-04-28T03:52:12;98815.03;;;11.90;81.58
35443;BME280;21561;55.654;37.592;2023-04-28T03:54:39;98810.75;;;11.86;79.41
35443;BME280;21561;55.654;37.592;2023-04-28T03:57:06;98811.66;;;11.85;78.93
35443;BME280;21561;55.654;37.592;2023-04-28T03:59:33;98810.66;;;11.89;77.50
35443;BME280;21561;55.654;37.592;2023-04-28T04:01:59;98809.72;;;11.93;75.97
35443;BME280;21561;55.654;37.592;2023-04-28T04:04:26;98815.59;;;12.01;76.20
35443;BME280;21561;55.654;37.592;2023-04-28T04:06:53;98825.97;;;12.01;76.06
35443;BME280;21561;55.654;37.592;2023-04-28T04:09:20;98822.41;;;12.06;76.56
35443;BME280;21561;55.654;37.592;2023-04-28T04:11:47;98820.72;;;12.05;78.13
35443;BME280;21561;55.654;37.592;2023-04-28T04:14:13;98820.63;;;12.08;76.54
35443;BME280;21561;55.654;37.592;2023-04-28T04:16:40;98812.94;;;12.03;81.90
35443;BME280;21561;55.654;37.592;2023-04-28T04:19:07;98807.69;;;12.06;77.03
35443;BME280;21561;55.654;37.592;2023-04-28T04:21:33;98806.72;;;12.09;77.17
35443;BME280;21561;55.654;37.592;2023-04-28T04:24:00;98805.75;;;12.13;75.91
35443;BME280;21561;55.654;37.592;2023-04-28T04:26:27;98824.72;;;12.16;75.53
35443;BME280;21561;55.654;37.592;2023-04-28T04:28:53;98830.59;;;12.25;75.93
35443;BME280;21561;55.654;37.592;2023-04-28T04:31:20;98837.44;;;12.27;78.04
35443;BME280;21561;55.654;37.592;2023-04-28T04:33:48;98830.63;;;12.23;76.86
35443;BME280;21561;55.654;37.592;2023-04-28T04:36:14;98836.78;;;12.20;75.87
35443;BME280;21561;55.654;37.592;2023-04-28T04:38:41;98839.41;;;12.19;75.69
35443;BME280;21561;55.654;37.592;2023-04-28T04:41:08;98834.28;;;12.16;78.20
35443;BME280;21561;55.654;37.592;2023-04-28T04:43:34;98837.06;;;12.10;81.86
35443;BME280;21561;55.654;37.592;2023-04-28T04:46:01;98836.06;;;12.14;77.99
35443;BME280;21561;55.654;37.592;2023-04-28T04:48:29;98835.16;;;12.15;82.91
35443;BME280;21561;55.654;37.592;2023-04-28T04:50:56;98846.22;;;12.23;78.73
35443;BME280;21561;55.654;37.592;2023-04-28T04:53:22;98856.56;;;12.26;77.56
35443;BME280;21561;55.654;37.592;2023-04-28T04:55:49;98849.47;;;12.31;78.85
35443;BME280;21561;55.654;37.592;2023-04-28T04:58:16;98844.28;;;12.31;78.67
35443;BME280;21561;55.654;37.592;2023-04-28T05:00:43;98846.78;;;12.34;79.16
35443;BME280;21561;55.654;37.592;2023-04-28T05:03:09;98837.22;;;12.36;81.52
35443;BME280;21561;55.654;37.592;2023-04-28T05:05:37;98847.44;;;12.43;80.37
35443;BME280;21561;55.654;37.592;2023-04-28T05:08:03;98847.38;;;12.46;78.57
35443;BME280;21561;55.654;37.592;2023-04-28T05:10:31;98849.09;;;12.45;80.75
35443;BME280;21561;55.654;37.592;2023-04-28T05:12:58;98838.78;;;12.42;80.07
35443;BME280;21561;55.654;37.592;2023-04-28T05:15:24;98852.63;;;12.43;80.00
35443;BME280;21561;55.654;37.592;2023-04-28T05:17:51;98853.38;;;12.48;83.13
35443;BME280;21561;55.654;37.592;2023-04-28T05:20:18;98854.97;;;12.52;83.42
35443;BME280;21561;55.654;37.592;2023-04-28T05:22:44;98851.28;;;12.60;82.64
35443;BME280;21561;55.654;37.592;2023-04-28T05:25:11;98847.56;;;12.69;83.05
35443;BME280;21561;55.654;37.592;2023-04-28T05:27:38;98850.63;;;12.84;80.71
35443;BME280;21561;55.654;37.592;2023-04-28T05:30:06;98847.63;;;12.97;80.90
35443;BME280;21561;55.654;37.592;2023-04-28T05:32:34;98847.47;;;13.02;81.61
35443;BME280;21561;55.654;37.592;2023-04-28T05:35:01;98856.00;;;13.07;79.35
35443;BME280;21561;55.654;37.592;2023-04-28T05:37:28;98860.25;;;13.10;78.89
35443;BME280;21561;55.654;37.592;2023-04-28T05:39:55;98847.31;;;13.08;80.25
35443;BME280;21561;55.654;37.592;2023-04-28T05:42:21;98852.50;;;13.08;79.34
35443;BME280;21561;55.654;37.592;2023-04-28T05:44:48;98846.25;;;13.14;77.54
35443;BME280;21561;55.654;37.592;2023-04-28T05:47:15;98846.81;;;13.24;78.81
35443;BME280;21561;55.654;37.592;2023-04-28T05:49:41;98853.63;;;13.28;79.53
35443;BME280;21561;55.654;37.592;2023-04-28T05:52:08;98858.84;;;13.28;80.65
35443;BME280;21561;55.654;37.592;2023-04-28T05:54:34;98858.91;;;13.26;81.31
35443;BME280;21561;55.654;37.592;2023-04-28T05:57:01;98853.75;;;13.25;81.01
35443;BME280;21561;55.654;37.592;2023-04-28T05:59:28;98853.72;;;13.26;80.34
35443;BME280;21561;55.654;37.592;2023-04-28T06:01:55;98854.44;;;13.31;80.73
35443;BME280;21561;55.654;37.592;2023-04-28T06:04:22;98855.06;;;13.40;80.51
35443;BME280;21561;55.654;37.592;2023-04-28T06:06:51;98860.63;;;13.55;77.51
35443;BME280;21561;55.654;37.592;2023-04-28T06:09:18;98853.53;;;13.61;82.05
35443;BME280;21561;55.654;37.592;2023-04-28T06:11:44;98845.41;;;13.70;80.99
35443;BME280;21561;55.654;37.592;2023-04-28T06:14:11;98841.47;;;13.83;79.21
35443;BME280;21561;55.654;37.592;2023-04-28T06:16:37;98846.50;;;13.89;81.24
35443;BME280;21561;55.654;37.592;2023-04-28T06:19:06;98848.19;;;13.90;82.00
35443;BME280;21561;55.654;37.592;2023-04-28T06:21:33;98844.38;;;14.01;79.30
35443;BME280;21561;55.654;37.592;2023-04-28T06:23:59;98844.06;;;14.10;78.21
35443;BME280;21561;55.654;37.592;2023-04-28T06:26:27;98853.66;;;14.09;78.73
35443;BME280;21561;55.654;37.592;2023-04-28T06:28:54;98845.59;;;14.16;77.53
35443;BME280;21561;55.654;37.592;2023-04-28T06:31:21;98848.84;;;14.22;81.37
35443;BME280;21561;55.654;37.592;2023-04-28T06:33:48;98850.91;;;14.14;79.29
35443;BME280;21561;55.654;37.592;2023-04-28T06:36:14;98848.38;;;14.11;79.75
35443;BME280;21561;55.654;37.592;2023-04-28T06:38:43;98847.03;;;13.99;83.02
35443;BME280;21561;55.654;37.592;2023-04-28T06:41:10;98855.56;;;14.04;79.82
35443;BME280;21561;55.654;37.592;2023-04-28T06:43:37;98845.97;;;14.05;79.27
35443;BME280;21561;55.654;37.592;2023-04-28T06:46:03;98847.78;;;14.03;81.79
35443;BME280;21561;55.654;37.592;2023-04-28T06:48:30;98846.84;;;14.05;83.38
35443;BME280;21561;55.654;37.592;2023-04-28T06:50:57;98848.53;;;14.06;83.64
35443;BME280;21561;55.654;37.592;2023-04-28T06:53:23;98849.50;;;14.04;82.95
35443;BME280;21561;55.654;37.592;2023-04-28T06:55:50;98847.78;;;14.03;81.93
35443;BME280;21561;55.654;37.592;2023-04-28T06:58:16;98848.84;;;13.97;86.77
35443;BME280;21561;55.654;37.592;2023-04-28T07:00:43;98850.44;;;14.01;82.83
35443;BME280;21561;55.654;37.592;2023-04-28T07:03:10;98850.38;;;14.03;82.79
35443;BME280;21561;55.654;37.592;2023-04-28T07:05:37;98849.28;;;14.10;81.70
35443;BME280;21561;55.654;37.592;2023-04-28T07:08:05;98857.91;;;14.12;81.68
35443;BME280;21561;55.654;37.592;2023-04-28T07:10:32;98853.78;;;14.05;82.47
35443;BME280;21561;55.654;37.592;2023-04-28T07:12:58;98853.91;;;14.02;81.55
35443;BME280;21561;55.654;37.592;2023-04-28T07:15:25;98859.94;;;14.04;85.25
35443;BME280;21561;55.654;37.592;2023-04-28T07:17:52;98863.44;;;14.03;82.87
35443;BME280;21561;55.654;37.592;2023-04-28T07:20:18;98848.69;;;14.02;82.85
35443;BME280;21561;55.654;37.592;2023-04-28T07:22:45;98858.03;;;14.09;81.71
35443;BME280;21561;55.654;37.592;2023-04-28T07:25:12;98856.00;;;14.17;81.67
35443;BME280;21561;55.654;37.592;2023-04-28T07:27:38;98858.66;;;14.16;82.69
35443;BME280;21561;55.654;37.592;2023-04-28T07:30:05;98864.75;;;14.16;82.11
35443;BME280;21561;55.654;37.592;2023-04-28T07:32:51;98878.78;;;14.12;82.88
35443;BME280;21561;55.654;37.592;2023-04-28T07:35:18;98867.16;;;13.96;85.20
35443;BME280;21561;55.654;37.592;2023-04-28T07:37:45;98870.13;;;13.85;90.13
35443;BME280;21561;55.654;37.592;2023-04-28T07:40:11;98880.06;;;13.73;88.82
35443;BME280;21561;55.654;37.592;2023-04-28T07:42:38;98866.34;;;13.67;89.48
35443;BME280;21561;55.654;37.592;2023-04-28T07:45:05;98866.44;;;13.64;87.85
35443;BME280;21561;55.654;37.592;2023-04-28T07:47:32;98855.75;;;13.73;85.17
35443;BME280;21561;55.654;37.592;2023-04-28T07:49:58;98863.88;;;13.89;84.63
35443;BME280;21561;55.654;37.592;2023-04-28T07:52:29;98861.34;;;14.14;88.26
35443;BME280;21561;55.654;37.592;2023-04-28T07:54:55;98864.94;;;14.35;85.83
35443;BME280;21561;55.654;37.592;2023-04-28T07:57:22;98868.66;;;14.53;83.72
35443;BME280;21561;55.654;37.592;2023-04-28T07:59:49;98871.03;;;14.61;86.16
35443;BME280;21561;55.654;37.592;2023-04-28T08:02:15;98866.56;;;14.64;85.08
35443;BME280;21561;55.654;37.592;2023-04-28T08:04:42;98871.16;;;14.58;85.92
35443;BME280;21561;55.654;37.592;2023-04-28T08:07:09;98865.19;;;14.52;84.16
35443;BME280;21561;55.654;37.592;2023-04-28T08:09:36;98872.38;;;14.46;85.99
35443;BME280;21561;55.654;37.592;2023-04-28T08:12:02;98871.78;;;14.39;84.90
35443;BME280;21561;55.654;37.592;2023-04-28T08:14:29;98868.78;;;14.25;84.63
35443;BME280;21561;55.654;37.592;2023-04-28T08:16:56;98865.69;;;14.13;84.82
35443;BME280;21561;55.654;37.592;2023-04-28T08:19:22;98865.06;;;14.07;84.91
35443;BME280;21561;55.654;37.592;2023-04-28T08:21:49;98870.38;;;14.04;85.23
35443;BME280;21561;55.654;37.592;2023-04-28T08:24:16;98870.97;;;13.85;86.85
35443;BME280;21561;55.654;37.592;2023-04-28T08:26:43;98881.25;;;13.63;85.53
35443;BME280;21561;55.654;37.592;2023-04-28T08:29:10;98880.03;;;13.47;86.45
35443;BME280;21561;55.654;37.592;2023-04-28T08:31:37;98869.03;;;13.37;89.04
35443;BME280;21561;55.654;37.592;2023-04-28T08:34:03;98877.03;;;13.31;87.37
35443;BME280;21561;55.654;37.592;2023-04-28T08:36:30;98874.47;;;13.28;87.27
35443;BME280;21561;55.654;37.592;2023-04-28T08:38:59;98885.00;;;13.25;91.47
35443;BME280;21561;55.654;37.592;2023-04-28T08:41:30;98871.22;;;13.21;89.05
35443;BME280;21561;55.654;37.592;2023-04-28T08:43:57;98878.28;;;13.17;90.10
35443;BME280;21561;55.654;37.592;2023-04-28T08:46:24;98882.63;;;13.17;89.17
35443;BME280;21561;55.654;37.592;2023-04-28T08:48:52;98884.13;;;13.24;88.69
35443;BME280;21561;55.654;37.592;2023-04-28T08:51:31;98887.63;;;13.25;89.02
35443;BME280;21561;55.654;37.592;2023-04-28T08:53:58;98888.69;;;13.17;98.40
35443;BME280;21561;55.654;37.592;2023-04-28T08:56:34;98883.78;;;13.08;95.24
35443;BME280;21561;55.654;37.592;2023-04-28T08:59:01;98885.03;;;12.93;96.27
35443;BME280;21561;55.654;37.592;2023-04-28T09:01:30;98887.19;;;12.79;97.42
35443;BME280;21561;55.654;37.592;2023-04-28T09:03:56;98883.00;;;12.73;93.65
35443;BME280;21561;55.654;37.592;2023-04-28T09:06:26;98883.00;;;12.73;96.44
35443;BME280;21561;55.654;37.592;2023-04-28T09:08:55;98886.53;;;12.72;96.46
35443;BME280;21561;55.654;37.592;2023-04-28T09:11:22;98877.53;;;12.83;99.85
35443;BME280;21561;55.654;37.592;2023-04-28T09:13:48;98870.94;;;13.01;98.16
35443;BME280;21561;55.654;37.592;2023-04-28T09:16:15;98879.97;;;13.18;96.08
35443;BME280;21561;55.654;37.592;2023-04-28T09:18:54;98879.59;;;13.32;95.07
35443;BME280;21561;55.654;37.592;2023-04-28T09:21:21;98880.09;;;13.44;93.68
35443;BME280;21561;55.654;37.592;2023-04-28T09:23:47;98884.47;;;13.43;94.86
35443;BME280;21561;55.654;37.592;2023-04-28T09:26:16;98882.66;;;13.45;99.04
35443;BME280;21561;55.654;37.592;2023-04-28T09:28:42;98881.56;;;13.52;98.97
35443;BME280;21561;55.654;37.592;2023-04-28T09:31:22;98872.63;;;13.61;96.17
35443;BME280;21561;55.654;37.592;2023-04-28T09:33:56;98871.38;;;13.73;99.63
35443;BME280;21561;55.654;37.592;2023-04-28T09:36:26;98875.41;;;13.82;96.94
35443;BME280;21561;55.654;37.592;2023-04-28T09:38:58;98871.63;;;13.92;93.91
35443;BME280;21561;55.654;37.592;2023-04-28T09:41:41;98866.41;;;13.92;96.96
35443;BME280;21561;55.654;37.592;2023-04-28T09:44:15;98868.00;;;13.96;94.67
35443;BME280;21561;55.654;37.592;2023-04-28T09:46:43;98881.22;;;13.91;98.62
35443;BME280;21561;55.654;37.592;2023-04-28T09:49:13;98878.63;;;13.90;96.94
35443;BME280;21561;55.654;37.592;2023-04-28T09:51:41;98870.13;;;13.85;96.67
35443;BME280;21561;55.654;37.592;2023-04-28T09:54:07;98875.50;;;13.80;95.27
35443;BME280;21561;55.654;37.592;2023-04-28T09:56:34;98882.56;;;13.77;96.50
35443;BME280;21561;55.654;37.592;2023-04-28T09:59:07;98875.78;;;13.71;99.08
35443;BME280;21561;55.654;37.592;2023-04-28T10:01:37;98873.16;;;13.71;98.04
35443;BME280;21561;55.654;37.592;2023-04-28T10:04:06;98877.22;;;13.80;94.22
35443;BME280;21561;55.654;37.592;2023-04-28T10:06:33;98873.28;;;13.94;93.32
35443;BME280;21561;55.654;37.592;2023-04-28T10:09:04;98873.88;;;14.03;95.80
35443;BME280;21561;55.654;37.592;2023-04-28T10:11:31;98875.28;;;14.13;95.81
35443;BME280;21561;55.654;37.592;2023-04-28T10:13:59;98880.59;;;14.35;96.26
35443;BME280;21561;55.654;37.592;2023-04-28T10:16:26;98888.59;;;14.56;94.32
35443;BME280;21561;55.654;37.592;2023-04-28T10:18:55;98885.28;;;14.76;92.56
35443;BME280;21561;55.654;37.592;2023-04-28T10:21:22;98884.06;;;14.86;91.89
35443;BME280;21561;55.654;37.592;2023-04-28T10:24:14;98884.50;;;14.97;91.56
35443;BME280;21561;55.654;37.592;2023-04-28T10:29:26;98885.06;;;15.29;90.87
35443;BME280;21561;55.654;37.592;2023-04-28T10:34:39;98885.69;;;15.58;90.08
35443;BME280;21561;55.654;37.592;2023-04-28T10:37:06;98880.69;;;15.52;90.26
35443;BME280;21561;55.654;37.592;2023-04-28T10:39:32;98871.44;;;15.43;90.06
35443;BME280;21561;55.654;37.592;2023-04-28T10:41:59;98885.91;;;15.30;89.94
35443;BME280;21561;55.654;37.592;2023-04-28T10:46:59;98886.19;;;14.98;90.61
35443;BME280;21561;55.654;37.592;2023-04-28T10:57:55;98907.56;;;14.36;89.51
35443;BME280;21561;55.654;37.592;2023-04-28T11:00:34;98905.69;;;14.14;89.88
35443;BME280;21561;55.654;37.592;2023-04-28T11:03:00;98902.25;;;13.85;92.33
35443;BME280;21561;55.654;37.592;2023-04-28T11:05:27;98902.66;;;13.73;91.97
35443;BME280;21561;55.654;37.592;2023-04-28T11:13:27;98914.56;;;13.24;97.70
35443;BME280;21561;55.654;37.592;2023-04-28T11:16:02;98920.31;;;13.05;100.00
35443;BME280;21561;55.654;37.592;2023-04-28T11:19:17;98924.00;;;12.98;97.96
35443;BME280;21561;55.654;37.592;2023-04-28T11:21:21;98909.44;;;12.91;99.46
35443;BME280;21561;55.654;37.592;2023-04-28T11:23:48;98921.59;;;12.90;100.00
35443;BME280;21561;55.654;37.592;2023-04-28T11:26:15;98917.16;;;12.94;100.00
35443;BME280;21561;55.654;37.592;2023-04-28T11:28:49;98919.34;;;13.08;100.00
35443;BME280;21561;55.654;37.592;2023-04-28T11:31:16;98919.81;;;13.22;99.33
35443;BME280;21561;55.654;37.592;2023-04-28T11:33:47;98913.38;;;13.35;100.00
35443;BME280;21561;55.654;37.592;2023-04-28T11:36:21;98906.91;;;13.47;98.06
35443;BME280;21561;55.654;37.592;2023-04-28T11:38:48;98909.97;;;13.62;98.33
35443;BME280;21561;55.654;37.592;2023-04-28T11:41:15;98908.06;;;13.67;96.24
35443;BME280;21561;55.654;37.592;2023-04-28T11:43:41;98913.94;;;13.73;94.56
35443;BME280;21561;55.654;37.592;2023-04-28T11:46:16;98908.44;;;13.83;94.93
35443;BME280;21561;55.654;37.592;2023-04-28T11:48:43;98914.50;;;13.83;94.93
35443;BME280;21561;55.654;37.592;2023-04-28T11:51:26;98907.69;;;13.79;95.00
35443;BME280;21561;55.654;37.592;2023-04-28T11:53:53;98902.56;;;13.76;95.99
35443;BME280;21561;55.654;37.592;2023-04-28T11:56:20;98895.44;;;13.81;96.14
35443;BME280;21561;55.654;37.592;2023-04-28T11:58:58;98899.56;;;13.88;95.03
35443;BME280;21561;55.654;37.592;2023-04-28T12:01:26;98895.03;;;13.93;93.23
35443;BME280;21561;55.654;37.592;2023-04-28T12:03:53;98892.22;;;14.00;93.00
35443;BME280;21561;55.654;37.592;2023-04-28T12:06:21;98897.38;;;14.01;92.98
35443;BME280;21561;55.654;37.592;2023-04-28T12:08:48;98893.13;;;13.99;92.97
35443;BME280;21561;55.654;37.592;2023-04-28T12:11:14;98893.88;;;14.02;92.52
35443;BME280;21561;55.654;37.592;2023-04-28T12:16:42;98880.38;;;14.16;92.58
35443;BME280;21561;55.654;37.592;2023-04-28T12:19:09;98885.47;;;14.19;92.72
35443;BME280;21561;55.654;37.592;2023-04-28T12:21:37;98885.28;;;14.25;91.77
35443;BME280;21561;55.654;37.592;2023-04-28T12:24:18;98885.19;;;14.28;91.16
35443;BME280;21561;55.654;37.592;2023-04-28T12:26:45;98890.69;;;14.19;92.71
35443;BME280;21561;55.654;37.592;2023-04-28T12:31:57;98897.19;;;13.81;94.53
35443;BME280;21561;55.654;37.592;2023-04-28T12:34:24;98898.69;;;13.61;94.81
35443;BME280;21561;55.654;37.592;2023-04-28T12:36:52;98909.56;;;13.46;96.00
35443;BME280;21561;55.654;37.592;2023-04-28T12:39:19;98920.56;;;13.26;97.69
35443;BME280;21561;55.654;37.592;2023-04-28T12:41:48;98907.13;;;13.10;98.18
35443;BME280;21561;55.654;37.592;2023-04-28T12:44:14;98905.59;;;13.03;98.43
35443;BME280;21561;55.654;37.592;2023-04-28T12:46:41;98904.03;;;12.97;99.36
35443;BME280;21561;55.654;37.592;2023-04-28T12:49:08;98912.03;;;12.91;100.00
35443;BME280;21561;55.654;37.592;2023-04-28T12:51:34;98912.19;;;12.85;100.00
35443;BME280;21561;55.654;37.592;2023-04-28T12:54:04;98905.38;;;12.80;100.00
35443;BME280;21561;55.654;37.592;2023-04-28T12:56:30;98899.59;;;12.71;100.00
35443;BME280;21561;55.654;37.592;2023-04-28T12:58:57;98910.13;;;12.66;100.00
35443;BME280;21561;55.654;37.592;2023-04-28T13:01:24;98904.28;;;12.58;100.00
35443;BME280;21561;55.654;37.592;2023-04-28T13:03:50;98915.00;;;12.46;100.00
35443;BME280;21561;55.654;37.592;2023-04-28T13:06:19;98899.50;;;12.41;100.00
35443;BME280;21561;55.654;37.592;2023-04-28T13:08:45;98899.22;;;12.52;100.00
35443;BME280;21561;55.654;37.592;2023-04-28T13:11:12;98899.06;;;12.58;100.00
35443;BME280;21561;55.654;37.592;2023-04-28T13:13:48;98902.31;;;12.66;100.00
35443;BME280;21561;55.654;37.592;2023-04-28T13:16:15;98919.03;;;12.57;100.00
35443;BME280;21561;55.654;37.592;2023-04-28T13:18:41;98905.06;;;12.62;98.70
35443;BME280;21561;55.654;37.592;2023-04-28T13:21:08;98909.53;;;12.56;100.00